Meteo4 di Emilio Bellavite Il primo osservatorio Meteo di Verona  
 
lunedì 24 aprile 2017
 
 
dati in tempo reale
Di seguito i dati in tempo reale delle stazioni on line della rete di Meteo4. Cliccando sul link della stazione, ove presente, si accederà al sito web personale.
Stazioni online
Località Giorno Ora Temp. Umid. Relat. Dew Point Press. Atm. Velocità Vento Direz. Vento Precip. Temp.
Min
Temp.
Max
Abano (PD) 22/04/17 20.10 14.6 °C 54 % 5.3 °C 1014.9 hPa 1.6 Km/h E 0.0 mm  5.1 °C 20.2 °C
Acquapendente (VT) 24/04/17 07.12 5.3 °C 78 % 1.8 °C 1014.2 hPa 0.0 Km/h SSE 0.0 mm  4.9 °C 8.1 °C
Acquaviva delle Fonti (BA) 24/04/17 07.13 8.4 °C 84 % 5.9 °C 1019.9 hPa 1.3 Km/h SW 0.0 mm  6.8 °C 10.6 °C
Ala (TN) 24/04/17 07.13 12.1 °C 74 % 7.6 °C 1018.3 hPa 8.0 Km/h SW 0.0 mm  11.7 °C 14.6 °C
Alleghe (BL) 24/04/17 07.13 4.4 °C 76 % 0.5 °C 1005.1 hPa 0.0 Km/h NNE 0.0 mm  3.6 °C 4.8 °C
Alleghe Lago (BL) 24/04/17 07.14 4.9 °C 76 % 1.0 °C 1010.8 hPa 2.4 Km/h NNE 0.0 mm  4.3 °C 5.4 °C
Ancona (AN) 24/04/17 07.15 11.2 °C 85 % 8.7 °C 1020.2 hPa 0.0 Km/h --- 0.0 mm  9.1 °C 11.6 °C
Arenzano (GE) 24/04/17 07.13 13.6 °C 80 % 10.2 °C 1019.5 hPa 0.0 Km/h SSW 0.0 mm  12.7 °C 14.5 °C
Arquà Polesine (RO) 24/04/17 07.12 12.5 °C 82 % 9.5 °C 1017.3 hPa 2.5 Km/h NW 0.0 mm  12.4 °C 13.5 °C
Arzignano loc. Castello (VI) 24/04/17 06.45 11.7 °C 80 % 8.4 °C 1019.4 hPa 0.0 Km/h --- 0.0 mm  11.7 °C 12.7 °C
Arzignano Pugnello (VI) 24/04/17 07.13 10.8 °C 81 % 7.8 °C 1018.1 hPa 0.0 Km/h NE 0.0 mm  10.7 °C 11.7 °C
Arzignano San Bortolo (VI) 24/04/17 07.01 11.4 °C 80 % 8.1 °C 1016.8 hPa 6.4 Km/h N 0.0 mm  11.4 °C 12.2 °C
Arzignano Tezze (VI) 24/04/17 07.04 12.3 °C 80 % 8.9 °C 1019.2 hPa 0.0 Km/h NNE 0.0 mm  12.2 °C 13.1 °C
Asiago Rifugio Val Formica (VI) 24/04/17 07.01 0.8 °C 91 % -0.4 °C 1018.8 hPa 0.0 Km/h SE 0.0 mm  0.6 °C 2.3 °C
Avenza-Carrara (MS) 24/04/17 07.15 9.6 °C 79 % 6.1 °C 1022.0 hPa 0.0 Km/h --- 0.0 mm  9.6 °C 12.3 °C
Avio (TN) 24/04/17 07.13 12.6 °C 74 % 8.1 °C 1018.6 hPa 0.0 Km/h WNW 0.0 mm  12.6 °C 14.7 °C
Badia Calavena loc. San Valentino (VR) 24/04/17 07.13 7.0 °C 81 % 4.0 °C 1017.2 hPa 9.7 Km/h NNE 0.0 mm  7.0 °C 8.2 °C
Barcellona Pozzo di Gotto (ME) 24/04/17 07.13 11.5 °C 76 % 7.4 °C 1020.9 hPa 2.4 Km/h WSW 0.0 mm  11.0 °C 12.8 °C
Bassano del Grappa (VI) 23/04/17 08.00 9.2 °C 73 % 4.6 °C 1003.7 hPa 1.6 Km/h ENE 0.0 mm  6.7 °C 9.4 °C
Bellaria Igea Marina (RN) 24/04/17 07.13 8.6 °C 88 % 6.7 °C 1018.5 hPa 3.2 Km/h W 0.0 mm  8.0 °C 12.2 °C
Bellaria Igea Marina2 (RN) 24/04/17 07.13 8.6 °C 90 % 7.1 °C 1018.4 hPa 3.2 Km/h W 0.0 mm  8.1 °C 12.3 °C
Bellaria Igea Marina3 (RN) 24/04/17 07.13 7.4 °C 89 % 5.7 °C 1018.0 hPa 0.0 Km/h WSW 0.0 mm  6.8 °C 10.7 °C
Belluno Castion (BL) 24/04/17 07.15 8.3 °C 86 % 6.1 °C 1019.0 hPa 0.0 Km/h --- 0.0 mm  7.2 °C 10.7 °C
Besenello (TN) 24/04/17 07.13 12.3 °C 68 % 6.5 °C 1019.5 hPa 0.0 Km/h ENE 0.0 mm  11.9 °C 14.6 °C
Besozzo (VA) 23/04/17 21.48 15.2 °C 66 % 8.9 °C 1016.4 hPa 0.0 Km/h --- 0.0 mm  4.0 °C 21.3 °C
Biasì (OT) 23/04/17 21.03 11.9 °C 66 % 5.7 °C 1018.6 hPa 0.0 Km/h E 0.0 mm  4.6 °C 20.4 °C
Bisignano (CS) 24/04/17 07.13 8.0 °C 61 % 0.9 °C 1021.2 hPa 2.5 Km/h NE 0.0 mm  7.4 °C 10.8 °C
Bitti (NU) 24/04/17 07.12 8.2 °C 66 % 2.2 °C 1018.5 hPa 1.4 Km/h SSE 0.0 mm  7.9 °C 9.6 °C
Bolognano di Arco (TN) 23/04/17 22.30 15.4 °C 60 % 7.7 °C 1018.2 hPa 5.8 Km/h SSW 0.0 mm  6.4 °C 18.8 °C
Bonorva (SS) 24/04/17 07.10 8.0 °C 79 % 4.6 °C 1017.9 hPa 0.0 Km/h --- 0.0 mm  7.8 °C 10.4 °C
Borgo Valsugana (TN) 24/04/17 07.01 10.3 °C 66 % 4.2 °C 1021.9 hPa 0.0 Km/h SSE 0.0 mm  10.2 °C 12.0 °C
Borgofranco d'Ivrea (TO) 24/04/17 07.13 12.1 °C 81 % 8.9 °C 1019.2 hPa 1.4 Km/h SSE 0.0 mm  10.4 °C 12.3 °C
Borore (NU) 24/04/17 07.14 8.1 °C 72 % 3.3 °C 1017.7 hPa 4.8 Km/h WSW 0.0 mm  7.3 °C 9.6 °C
Brebbia (VA) 23/04/17 21.00 16.4 °C 63 % 9.3 °C 1016.6 hPa 1.6 Km/h ENE 0.0 mm  5.7 °C 22.1 °C
Bresega (PD) 24/04/17 07.13 0.0 °C 0 % 0.0 °C 1019.5 hPa 5.0 Km/h NE 0.0 mm  0.0 °C 0.0 °C
Brolo c/da Parrazzà (ME) 24/04/17 07.15 11.4 °C 68 % 5.7 °C 1020.7 hPa 11.0 Km/h SE 0.0 mm  10.4 °C 11.7 °C
Brugine2 (PD) 22/04/17 16.49 16.3 °C 53 % 6.7 °C 1017.1 hPa 3.3 Km/h N 0.0 mm  2.7 °C 17.6 °C
Buccheri (SR) 23/04/17 00.34 5.0 °C 63 % -1.5 °C 1016.0 hPa 0.0 Km/h NNW 0.0 mm  4.9 °C 5.2 °C
Budoia (PN) 24/04/17 07.00 10.2 °C 79 % 6.7 °C 1020.0 hPa 6.4 Km/h NW 0.0 mm  9.4 °C 11.8 °C
Ca' Gallo (PU) 24/04/17 07.00 9.8 °C 86 % 7.6 °C 1018.5 hPa 3.5 Km/h N 0.0 mm  9.0 °C 10.5 °C
Calcinato (BS) 24/04/17 07.13 12.7 °C 75 % 8.3 °C 1022.1 hPa 14.5 Km/h SSW 0.0 mm  12.4 °C 12.9 °C
Calliano (TN) 21/04/17 17.35 18.2 °C 39 % 4.0 °C 1022.7 hPa 22.5 Km/h SSW 0.4 mm  -0.1 °C 32.6 °C
Caltabellotta (AG) 24/04/17 07.10 9.6 °C 79 % 6.2 °C 1020.0 hPa 0.0 Km/h ENE 0.2 mm  7.2 °C 9.6 °C
Cammarata (AG) 24/04/17 07.13 10.5 °C 66 % 4.4 °C 1018.2 hPa 0.0 Km/h SE 0.0 mm  7.2 °C 10.5 °C
Camposampiero (PD) 24/04/17 07.14 12.4 °C 37 % -1.9 °C 1019.0 hPa 5.6 Km/h NE 0.0 mm  12.4 °C 12.4 °C
Capodimonte (VT) 24/04/17 07.10 8.2 °C 96 % 7.6 °C 1021.6 hPa 0.0 Km/h N 0.2 mm  7.6 °C 9.4 °C
Caprarola Centro Storico (VT) 24/04/17 07.13 9.1 °C 100 % 9.1 °C 1021.0 hPa 0.0 Km/h SW 0.0 mm  7.3 °C 9.4 °C
Caprino (VR) 24/04/17 07.14 11.4 °C 77 % 7.6 °C 1017.6 hPa 0.0 Km/h ENE 0.0 mm  10.9 °C 12.1 °C
Carceri (PD) 24/04/17 06.54 12.7 °C 80 % 9.4 °C 1018.8 hPa 8.0 Km/h NE 0.0 mm  12.7 °C 13.9 °C
Carmignano loc. Seano (PO) 24/04/17 07.14 6.9 °C 93 % 5.8 °C 1020.9 hPa 0.0 Km/h W 0.0 mm  6.7 °C 10.4 °C
Carpi (MO) 24/04/17 07.13 12.4 °C 90 % 10.8 °C 1018.8 hPa 5.9 Km/h NNE 0.0 mm  11.8 °C 13.0 °C
Cartigliano (VI) 24/04/17 07.13 11.8 °C 78 % 8.1 °C 1019.2 hPa 0.0 Km/h NE 0.0 mm  11.7 °C 13.3 °C
Casotto (VI) 24/04/17 06.54 9.5 °C 81 % 6.7 °C 1018.2 hPa 0.0 Km/h NNE 0.0 mm  9.5 °C 10.8 °C
Cassano Magnago (VA) 24/04/17 07.04 12.5 °C 70 % 7.2 °C 1018.5 hPa 3.2 Km/h SW 0.0 mm  12.5 °C 14.4 °C
Castel d'Azzano (VR) 24/04/17 07.05 13.3 °C 72 % 8.3 °C 845.0 hPa 3.2 Km/h SE 0.0 mm  13.3 °C 14.2 °C
Castelfranco Veneto (TV) 24/04/17 07.15 12.2 °C 81 % 9.0 °C 1020.1 hPa 0.0 Km/h ENE 0.0 mm  11.9 °C 13.4 °C
Castelfranco Veneto2 (TV) 24/04/17 07.02 12.1 °C 78 % 8.4 °C 1020.2 hPa 1.6 Km/h ENE 0.0 mm  0.0 °C 13.6 °C
Castelgomberto (VI) 24/04/17 07.14 12.2 °C 76 % 8.1 °C 1019.0 hPa 5.8 Km/h NNW 0.0 mm  12.1 °C 12.9 °C
Castelnuovo V.C. (PI) 24/04/17 07.17 8.5 °C 94 % 7.6 °C 1019.0 hPa 0.7 Km/h NNE 0.2 mm  5.8 °C 8.5 °C
Castiglione del Lago (PG) 24/04/17 07.10 6.8 °C 75 % 2.7 °C 1022.8 hPa 0.0 Km/h --- 0.0 mm  5.0 °C 12.3 °C
Castiglione della Pescaia Vaticino (GR) 24/04/17 07.09 10.3 °C 1 % -43.7 °C 1019.3 hPa 0.0 Km/h W 0.0 mm  8.8 °C 12.5 °C
Cavaria con Premezzo (VA) 24/04/17 07.14 12.4 °C 70 % 7.2 °C 1018.5 hPa 2.0 Km/h SE 0.0 mm  12.4 °C 14.2 °C
Cefalù (PA) 24/04/17 07.14 13.4 °C 67 % 7.4 °C 1017.2 hPa 0.0 Km/h SE 0.0 mm  11.4 °C 13.4 °C
Cerea (VR) 23/04/17 23.15 13.5 °C 70 % 8.1 °C 1019.3 hPa 8.0 Km/h ENE 0.0 mm  6.1 °C 21.2 °C
Chiusi (SI) 24/04/17 07.01 7.2 °C 96 % 6.6 °C 1019.5 hPa 0.0 Km/h W 0.0 mm  7.2 °C 10.8 °C
Cima Grappa (TV) 24/04/17 07.14 0.5 °C 92 % -0.6 °C 1022.4 hPa 0.2 Km/h SSW 0.0 mm  -0.7 °C 0.5 °C
Cismon del Grappa loc. Corlo (VI) 24/04/17 07.14 9.4 °C 82 % 6.5 °C 1020.5 hPa 3.2 Km/h NNE 0.0 mm  9.3 °C 11.7 °C
Cittadella (PD) 24/04/17 07.00 12.8 °C 73 % 8.1 °C 1018.8 hPa 1.8 Km/h SE 0.0 mm  12.8 °C 14.2 °C
Civita Castellana (VT) 24/04/17 07.13 6.1 °C 85 % 3.8 °C 1021.7 hPa 1.1 Km/h ENE 0.0 mm  3.9 °C 8.5 °C
Cogollo del Cengio (VI) 24/04/17 07.14 9.5 °C 99 % 9.4 °C 1018.7 hPa 1.9 Km/h NW 0.0 mm  9.3 °C 11.2 °C
Colle del Piccolo San Bernardo La Thuile (AO) 24/04/17 06.57 -0.6 °C 82 % -3.3 °C 1017.5 hPa 6.4 Km/h ENE 0.0 mm  -0.8 °C 2.0 °C
Colle S. Lucia Posalz (BL) 24/04/17 07.13 2.9 °C 70 % -2.0 °C 1025.4 hPa 0.0 Km/h SSW 0.0 mm  2.9 °C 4.3 °C
Cologna Veneta Sant'Andrea (VR) 24/04/17 07.15 12.3 °C 82 % 9.3 °C 1018.1 hPa 4.8 Km/h E 0.0 mm  12.2 °C 13.7 °C
Colognola ai Colli (VR) 24/04/17 07.15 12.8 °C 74 % 8.3 °C 1020.6 hPa 9.7 Km/h N 0.0 mm  12.8 °C 13.8 °C
Contrada Dosso Gervasio (VR) 20/04/17 23.15 3.5 °C 23 % -16.1 °C 1025.7 hPa 10.0 Km/h NW 0.0 mm  1.2 °C 10.7 °C
Corrubio di S. Anna d'Alfaedo (VR) 24/04/17 07.20 7.4 °C 76 % 3.4 °C 1020.4 hPa 1.6 Km/h ESE 0.0 mm  7.2 °C 9.2 °C
Cosseria Lidora (SV) 24/04/17 07.15 9.2 °C 96 % 8.6 °C 1018.6 hPa 0.0 Km/h --- 0.0 mm  7.4 °C 11.1 °C
Costa di Vittorio Veneto (TV) 24/04/17 07.02 10.1 °C 83 % 7.3 °C 1019.2 hPa 0.0 Km/h N 0.0 mm  9.8 °C 12.7 °C
Dorno (PV) 24/04/17 07.14 12.3 °C 85 % 9.8 °C 1019.2 hPa 7.2 Km/h E 0.0 mm  12.2 °C 14.1 °C
Dossobuono (VR) 24/04/17 07.13 12.9 °C 71 % 7.8 °C 1020.9 hPa 20.9 Km/h ESE 0.0 mm  12.9 °C 14.0 °C
Falzè di Piave (TV) 24/04/17 07.14 9.9 °C 86 % 7.7 °C 1021.2 hPa 0.0 Km/h --- 0.0 mm  8.4 °C 11.9 °C
Farra di Soligo (TV) 24/04/17 07.08 11.1 °C 75 % 6.8 °C 1019.0 hPa 0.0 Km/h W 0.0 mm  9.9 °C 12.7 °C
Favaro Veneto (VE) 24/04/17 07.10 11.2 °C 76 % 7.1 °C 1020.4 hPa 4.8 Km/h NE 0.0 mm  11.1 °C 13.6 °C
Feltre Celarda (BL) 24/04/17 07.14 8.6 °C 85 % 6.2 °C 1017.7 hPa 0.0 Km/h NNE 0.0 mm  8.2 °C 12.4 °C
Ferrara di M.B. (VR) 24/04/17 06.50 4.7 °C 83 % 2.0 °C 1015.7 hPa 0.0 Km/h N 0.0 mm  4.6 °C 5.8 °C
Fiavè loc. Ballino (TN) 24/04/17 07.13 8.1 °C 74 % 3.7 °C 1022.9 hPa 7.2 Km/h S 0.0 mm  7.8 °C 9.0 °C
Filo di Argenta (FE) 24/04/17 07.16 11.4 °C 92 % 10.2 °C 1019.7 hPa 0.2 Km/h E 0.0 mm  11.2 °C 12.2 °C
Fogliano Redipuglia (GO) 24/04/17 07.01 10.6 °C 55 % 1.9 °C 1020.9 hPa 4.7 Km/h ENE 0.0 mm  10.3 °C 11.1 °C
Foligno (PG) 24/04/17 07.10 7.0 °C 77 % 3.2 °C 1020.9 hPa 3.2 Km/h E 0.0 mm  7.0 °C 12.9 °C
Fontanafredda (PN) 24/04/17 07.14 9.9 °C 88 % 8.0 °C 1019.8 hPa 1.5 Km/h NE 0.0 mm  9.2 °C 12.2 °C
Gallio (VI) 24/04/17 07.05 4.6 °C 86 % 2.5 °C 1019.5 hPa 0.0 Km/h N 0.0 mm  4.6 °C 5.7 °C
Gardolo (TN) 24/04/17 07.14 12.2 °C 67 % 6.3 °C 1019.7 hPa 0.0 Km/h NE 0.0 mm  12.2 °C 15.0 °C
Genova Albaro (GE) 24/04/17 07.14 10.6 °C 74 % 6.2 °C 1023.0 hPa 9.2 Km/h NW 0.0 mm  10.3 °C 14.6 °C
Genova Erzelli (GE) 24/04/17 07.17 12.6 °C 77 % 8.7 °C 1018.8 hPa 3.2 Km/h N 0.0 mm  11.4 °C 14.9 °C
Giazza (VR) 24/04/17 07.10 7.1 °C 83 % 4.4 °C 1018.9 hPa 0.0 Km/h N 0.0 mm  7.0 °C 8.2 °C
Girifalco (CZ) 24/04/17 07.13 11.7 °C 67 % 5.8 °C 1019.3 hPa 12.9 Km/h NW 0.0 mm  10.2 °C 11.7 °C
Gorizia (GO) 24/04/17 07.14 11.1 °C 59 % 2.8 °C 1021.1 hPa 0.0 Km/h E 0.0 mm  10.3 °C 11.2 °C
Gradisca d'Isonzo (GO) 24/04/17 07.14 10.8 °C 64 % 4.3 °C 1021.6 hPa 2.5 Km/h NE 0.0 mm  10.1 °C 11.0 °C
Iglesias (CI) 24/04/17 07.04 9.4 °C 70 % 4.2 °C 1019.5 hPa 1.4 Km/h NE 0.0 mm  8.6 °C 11.9 °C
Isola d'Elba Marina di Campo (LI) 24/04/17 00.45 9.8 °C 87 % 7.8 °C 706.5 hPa 0.0 Km/h NNW 0.0 mm  9.3 °C 10.3 °C
Lavis (TN) 24/04/17 07.10 12.6 °C 65 % 6.1 °C 1018.6 hPa 3.2 Km/h ENE 0.0 mm  12.5 °C 14.7 °C
Laxolo (BG) 24/04/17 07.18 9.4 °C 86 % 7.2 °C 1015.4 hPa 0.0 Km/h E 3.4 mm  5.8 °C 18.3 °C
Legnago (VR) 24/04/17 07.10 12.0 °C 86 % 9.7 °C 1019.6 hPa 1.6 Km/h NE 0.0 mm  11.6 °C 13.4 °C
Lesmo (MB) 24/04/17 07.15 12.2 °C 70 % 6.9 °C 1019.5 hPa 4.8 Km/h E 0.0 mm  12.1 °C 14.7 °C
Loano (SV) 24/04/17 07.15 14.5 °C 82 % 11.5 °C 1019.0 hPa 2.0 Km/h SW 0.0 mm  14.4 °C 15.2 °C
Lovere (BG) 24/04/17 07.01 12.5 °C 40 % -0.7 °C 1019.0 hPa 9.4 Km/h SSW 0.0 mm  12.4 °C 15.2 °C
Lugagnano (VR) 24/04/17 07.13 13.0 °C 74 % 8.3 °C 1018.4 hPa 8.0 Km/h SSE 0.0 mm  13.0 °C 14.1 °C
Magnano (BI) 24/04/17 07.13 10.2 °C 95 % 9.4 °C 1013.2 hPa 2.3 Km/h W 0.0 mm  8.3 °C 10.5 °C
Malnate San Salvatore (VA) 24/04/17 07.07 11.8 °C 70 % 6.6 °C 1019.5 hPa 0.0 Km/h W 0.0 mm  11.8 °C 13.8 °C
Marano Vicentino2 (VI) 24/04/17 07.10 11.2 °C 79 % 7.7 °C 1019.6 hPa 0.0 Km/h W 0.0 mm  11.1 °C 12.8 °C
Margone (TN) 24/04/17 07.10 6.6 °C 88 % 4.8 °C 1020.3 hPa 0.0 Km/h ENE 0.0 mm  6.3 °C 7.9 °C
Marostica Valle San Floriano (VI) 24/04/17 07.13 10.6 °C 84 % 7.8 °C 1021.0 hPa 0.0 Km/h SW 0.0 mm  10.5 °C 11.8 °C
Marta (VT) 24/04/17 07.15 9.2 °C 92 % 8.0 °C 1018.8 hPa 1.9 Km/h W 0.0 mm  7.3 °C 9.3 °C
Martignano (TN) 24/04/17 07.15 11.3 °C 69 % 5.9 °C 1017.3 hPa 0.0 Km/h --- 0.0 mm  11.3 °C 13.4 °C
Mascalucia (CT) 24/04/17 07.20 8.8 °C 82 % 5.9 °C 1020.0 hPa 0.0 Km/h N 0.0 mm  7.4 °C 9.6 °C
Masiera di Bagnacavallo (RA) 24/04/17 07.04 11.9 °C 92 % 10.6 °C 1017.0 hPa 1.1 Km/h NW 0.0 mm  1.7 °C 20.5 °C
Massarosa (LU) 24/04/17 07.14 12.4 °C 75 % 8.1 °C 1008.0 hPa 5.0 Km/h SE 0.0 mm  9.7 °C 12.7 °C
Massone di Arco (TN) 24/04/17 07.14 11.8 °C 77 % 7.9 °C 1018.5 hPa 0.0 Km/h SE 0.0 mm  11.6 °C 13.6 °C
Mazzurega (VR) 24/04/17 07.07 10.4 °C 72 % 5.6 °C 1020.5 hPa 4.8 Km/h S 0.0 mm  10.4 °C 11.4 °C
Merlara (PD) 24/04/17 07.15 11.6 °C 83 % 8.8 °C 1018.9 hPa 6.4 Km/h ENE 0.0 mm  11.1 °C 13.1 °C
Mezzana Bigli (PV) 24/04/17 07.10 11.7 °C 84 % 9.1 °C 1018.0 hPa 0.0 Km/h NE 0.0 mm  11.5 °C 13.2 °C
Migliarino (FE) 24/04/17 07.10 13.2 °C 89 % 11.4 °C 1018.7 hPa 2.6 Km/h NW 0.0 mm  13.0 °C 14.3 °C
Miglionico (MT) 24/04/17 07.10 9.1 °C 72 % 4.3 °C 1018.5 hPa 4.8 Km/h NW 0.0 mm  9.1 °C 10.9 °C
Miola di Piné (TN) 24/04/17 07.10 6.2 °C 81 % 3.2 °C 1018.8 hPa 4.0 Km/h S 0.0 mm  6.2 °C 7.1 °C
Mirabella Imbaccari (CT) 24/04/17 07.18 10.2 °C 84 % 7.6 °C 1019.2 hPa 0.0 Km/h W 0.0 mm  7.4 °C 10.3 °C
Molina (VR) 24/04/17 06.57 8.4 °C 67 % 2.6 °C 1018.2 hPa 1.1 Km/h N 0.0 mm  7.9 °C 9.0 °C
Monasterolo Torinese (TO) 24/04/17 07.15 10.6 °C 80 % 7.2 °C 1016.0 hPa 0.0 Km/h --- 0.0 mm  10.4 °C 13.3 °C
Moneglia loc. La Secca (GE) 23/04/17 23.49 13.1 °C 85 % 10.6 °C 1019.3 hPa 0.0 Km/h NE 0.6 mm  13.1 °C 15.8 °C
Mongrando San Michele (BI) 24/04/17 07.15 10.2 °C 95 % 9.5 °C 1018.4 hPa 0.0 Km/h --- 0.2 mm  9.2 °C 10.5 °C
Montagna in Valtellina (SO) 24/04/17 07.10 11.6 °C 92 % 10.4 °C 1018.2 hPa 0.0 Km/h W 1.2 mm  11.6 °C 15.4 °C
Montebello Vicentino loc. Selva (VI) 24/04/17 07.10 11.6 °C 76 % 7.5 °C 1020.0 hPa 10.6 Km/h NE 0.0 mm  11.4 °C 12.3 °C
Montecchio Maggiore La Valle (VI) 24/04/17 07.03 12.6 °C 23 % -8.0 °C 1013.8 hPa 4.7 Km/h ENE 0.0 mm  12.3 °C 13.7 °C
Montecchio Maggiore Sant'Urbano (VI) 24/04/17 07.03 10.9 °C 71 % 5.8 °C 1023.6 hPa 3.5 Km/h NW 0.0 mm  10.8 °C 11.8 °C
Monteforte d'Alpone (VR) 24/04/17 07.15 12.9 °C 74 % 8.4 °C 1018.4 hPa 16.1 Km/h ENE 0.0 mm  12.8 °C 13.8 °C
Montelabbate (PU) 24/04/17 07.04 12.7 °C 69 % 7.2 °C 1018.5 hPa 9.7 Km/h SSW 0.0 mm  10.2 °C 13.4 °C
Montespertoli (FI) 24/04/17 07.06 9.8 °C 97 % 9.3 °C 1021.6 hPa 0.0 Km/h N 0.0 mm  8.0 °C 12.2 °C
Montorso Vicentino (VI) 24/04/17 07.10 10.3 °C 84 % 7.7 °C 1019.5 hPa 0.0 Km/h E 0.0 mm  10.2 °C 11.1 °C
Morbegno (SO) 24/04/17 07.10 12.8 °C 75 % 8.5 °C 1019.2 hPa 0.0 Km/h NW 0.5 mm  12.2 °C 16.6 °C
Muzzano (BI) 24/04/17 06.40 10.2 °C 88 % 8.3 °C 1017.1 hPa 0.0 Km/h --- 0.0 mm  10.2 °C 11.4 °C
Nichelino (TO) 24/04/17 06.55 12.3 °C 74 % 7.8 °C 1017.6 hPa 3.2 Km/h N 0.0 mm  12.3 °C 13.8 °C
Novara (NO) 24/04/17 06.50 12.9 °C 73 % 8.2 °C 1018.4 hPa 0.0 Km/h SSE 0.0 mm  12.9 °C 14.2 °C
Onara extraurbana (PD) 20/04/17 08.27 15.3 °C 29 % -2.7 °C 1010.3 hPa 0.2 Km/h SSW 0.0 mm  15.3 °C 15.3 °C
Oristano (OR) 24/04/17 07.12 8.3 °C 81 % 5.2 °C 1017.4 hPa 0.0 Km/h SE 0.0 mm  7.6 °C 10.1 °C
Orosei (NU) 24/04/17 06.56 9.3 °C 83 % 6.6 °C 1018.3 hPa 1.6 Km/h W 0.0 mm  9.3 °C 13.4 °C
Ortonovo (SP) 24/04/17 07.10 11.7 °C 81 % 8.6 °C 1019.3 hPa 8.2 Km/h SE 0.0 mm  10.5 °C 13.0 °C
Orvieto (TR) 23/04/17 21.31 11.9 °C 76 % 7.8 °C 1017.8 hPa 1.9 Km/h SE 0.0 mm  2.9 °C 22.0 °C
Ostana (CN) 23/04/17 20.24 6.7 °C 94 % 5.8 °C 1014.0 hPa 0.0 Km/h E 0.0 mm  4.6 °C 10.2 °C
Ovaro loc. Liariis (UD) 24/04/17 05.15 6.8 °C 85 % 4.4 °C 1021.1 hPa 0.0 Km/h --- 0.0 mm  6.8 °C 8.8 °C
Pace del Mela (ME) 24/04/17 07.10 12.1 °C 71 % 7.0 °C 1020.9 hPa 3.5 Km/h E 0.0 mm  10.8 °C 12.1 °C
Padergnone (TN) 24/04/17 07.00 11.6 °C 81 % 8.4 °C 1019.3 hPa 0.0 Km/h S 0.0 mm  11.6 °C 14.6 °C
Parella (TO) 24/04/17 07.04 12.2 °C 83 % 9.4 °C 1016.5 hPa 0.0 Km/h N 0.0 mm  11.5 °C 13.9 °C
Pastrengo (VR) 24/04/17 07.05 12.4 °C 71 % 7.3 °C 1019.9 hPa 1.1 Km/h NW 0.0 mm  12.4 °C 13.6 °C
Pastrengo Cornè (VR) 24/04/17 06.56 12.1 °C 75 % 7.8 °C 1017.9 hPa 1.4 Km/h ENE 0.0 mm  12.0 °C 13.5 °C
Pecetto Torinese (TO) 24/04/17 07.03 10.8 °C 84 % 8.2 °C 1017.8 hPa 0.0 Km/h NE 0.0 mm  10.7 °C 11.3 °C
Pedara (CT) 24/04/17 06.10 8.8 °C 76 % 4.8 °C 1015.5 hPa 0.0 Km/h NNW 0.0 mm  7.2 °C 10.5 °C
Pedemonte (VR) 24/04/17 06.55 12.9 °C 68 % 7.2 °C 1019.0 hPa 0.0 Km/h N 0.0 mm  12.9 °C 13.7 °C
Perugia San Mariano (PG) 24/04/17 07.00 7.8 °C 80 % 4.6 °C 1019.4 hPa 0.0 Km/h SE 0.0 mm  6.8 °C 11.9 °C
Pian di Castagné (VR) 24/04/17 07.06 10.4 °C 74 % 6.0 °C 1018.8 hPa 9.7 Km/h E 0.0 mm  10.4 °C 11.6 °C
Pila Valsesia (VC) 24/04/17 06.55 9.7 °C 84 % 7.1 °C 1015.1 hPa 0.0 Km/h ESE 0.0 mm  8.8 °C 11.6 °C
Piovà Massaia (AT) 24/04/17 07.10 10.8 °C 85 % 8.4 °C 1017.6 hPa 1.4 Km/h E 0.0 mm  10.2 °C 11.0 °C
Piraino contr. Fiumara (ME) 24/04/17 06.55 8.5 °C 85 % 6.1 °C 1020.5 hPa 3.0 Km/h NE 0.0 mm  8.1 °C 9.8 °C
Pisa zona I Passi (PI) 24/04/17 07.10 9.3 °C 82 % 6.4 °C 1021.3 hPa 0.0 Km/h NE 0.0 mm  8.6 °C 12.1 °C
Pomezia (RM) 24/04/17 07.10 11.9 °C 87 % 9.8 °C 1019.7 hPa 0.0 Km/h ESE 0.0 mm  10.9 °C 12.6 °C
Ponte San Nicolò (PD) 24/04/17 07.07 12.6 °C 75 % 8.3 °C 1019.5 hPa 6.4 Km/h ENE 0.0 mm  12.5 °C 14.1 °C
Ponte San Pellegrino (MO) 24/04/17 07.10 11.1 °C 95 % 10.3 °C 1010.0 hPa 6.1 Km/h NNE 0.0 mm  11.0 °C 12.6 °C
Pordenone (PN) 24/04/17 06.50 11.1 °C 71 % 6.0 °C 1020.6 hPa 0.0 Km/h N 0.0 mm  10.7 °C 13.6 °C
Pozzolo Formigaro (AL) 24/04/17 06.56 7.2 °C 92 % 6.0 °C 1019.2 hPa 2.2 Km/h SSE 0.0 mm  7.1 °C 12.5 °C
Pray (BI) 24/04/17 07.10 10.2 °C 94 % 9.3 °C 1018.2 hPa 0.0 Km/h --- 0.4 mm  10.2 °C 13.5 °C
Quinto di Valpantena (VR) 24/04/17 06.50 13.3 °C 64 % 6.6 °C 1019.3 hPa 1.6 Km/h SE 0.0 mm  13.3 °C 14.6 °C
Reggello (FI) 24/04/17 07.10 8.1 °C 80 % 4.9 °C 1023.7 hPa 8.0 Km/h SO 0.0 mm  7.3 °C 9.8 °C
Riccione (RN) 24/04/17 05.50 9.9 °C 85 % 7.5 °C 1018.9 hPa 0.0 Km/h SW 0.0 mm  9.9 °C 11.5 °C
Rifugio Bocca di Selva (VR) 24/04/17 07.10 2.7 °C 91 % 1.4 °C 1020.2 hPa 14.5 Km/h WSW 0.0 mm  2.7 °C 4.2 °C
Rifugio Fiori del Baldo (VR) 24/04/17 06.56 -0.2 °C 100 % -0.3 °C 1019.4 hPa 12.9 Km/h S 0.2 mm  -0.2 °C 1.6 °C
Rifugio Primaneve (VR) 24/04/17 07.05 1.0 °C 97 % 0.6 °C 1019.9 hPa 14.5 Km/h S 0.0 mm  0.9 °C 2.3 °C
Rimini (RN) 24/04/17 06.50 9.0 °C 83 % 6.3 °C 1019.2 hPa 0.0 Km/h WNW 0.0 mm  9.0 °C 11.6 °C
Rimini Zona Palas (RN) 24/04/17 07.02 9.8 °C 85 % 7.2 °C 1019.2 hPa 1.6 Km/h WNW 0.0 mm  9.4 °C 12.1 °C
Rivalba (TO) 24/04/17 07.08 11.1 °C 81 % 8.0 °C 1015.9 hPa 0.0 Km/h NNW 0.0 mm  10.0 °C 12.0 °C
Rivalta sul Mincio (MN) 24/04/17 06.56 12.8 °C 82 % 9.8 °C 1019.9 hPa 3.7 Km/h E 0.0 mm  12.6 °C 13.7 °C
Roma Prato della Signora (RM) 23/04/17 20.27 15.9 °C 67 % 9.8 °C 1019.9 hPa 0.0 Km/h W 0.0 mm  15.9 °C 20.4 °C
Romano d'Ezzelino Fellette (VI) 24/04/17 07.10 11.4 °C 72 % 6.5 °C 1023.2 hPa 0.0 Km/h NE 0.0 mm  11.4 °C 12.8 °C
Ronciglione Centro (VT) 24/04/17 07.10 9.1 °C 82 % 6.2 °C 1019.0 hPa 1.5 Km/h NNE 0.0 mm  8.1 °C 9.1 °C
Ronciglione - Ponte Cuzzoli (VT) 24/04/17 06.55 7.2 °C 95 % 6.4 °C 1021.0 hPa 3.2 Km/h WNW 0.0 mm  6.0 °C 7.6 °C
S. Giovanni Ilarione2 (VR) 24/04/17 06.50 12.4 °C 72 % 7.5 °C 1019.1 hPa 4.8 Km/h NW 0.0 mm  12.4 °C 13.2 °C
S. Giovanni Lupatoto (VR) 24/04/17 06.50 13.1 °C 77 % 9.2 °C 1019.7 hPa 1.6 Km/h ENE 0.0 mm  13.1 °C 14.2 °C
S. Giovanni Rotondo (FG) 24/04/17 06.55 9.1 °C 76 % 5.1 °C 1019.6 hPa 0.0 Km/h --- 0.0 mm  8.2 °C 11.4 °C
S. Lorenzo di Vittorio Veneto (TV) 24/04/17 07.10 10.2 °C 82 % 7.3 °C 1020.6 hPa 0.0 Km/h N 0.0 mm  9.6 °C 11.4 °C
S. Lorenzo Nuovo (VT) 24/04/17 07.11 9.8 °C 80 % 6.5 °C 1018.2 hPa 0.0 Km/h NE 0.0 mm  7.6 °C 9.8 °C
S. Maria Maddalena (RO) 24/04/17 07.05 11.7 °C 88 % 10.0 °C 1018.6 hPa 3.2 Km/h NE 0.0 mm  11.7 °C 13.6 °C
S. Martino Lupari (PD) 24/04/17 06.50 12.0 °C 82 % 9.0 °C 1020.7 hPa 0.0 Km/h ENE 0.0 mm  11.9 °C 13.5 °C
S. Rocco di Villabalzana (VI) 24/04/17 07.12 11.4 °C 83 % 8.9 °C 1019.7 hPa 6.5 Km/h ENE 0.0 mm  11.3 °C 12.2 °C
Sacile (PN) 24/04/17 06.50 10.3 °C 82 % 7.4 °C 1019.9 hPa 1.6 Km/h NE 0.0 mm  10.3 °C 13.2 °C
Salcedo (VI) 24/04/17 07.10 10.1 °C 66 % 4.0 °C 1018.9 hPa 2.0 Km/h NNE 0.0 mm  10.0 °C 10.4 °C
San Benedetto del Tronto (AP) 24/04/17 06.55 10.7 °C 79 % 7.2 °C 1018.0 hPa 0.0 Km/h SSW 0.0 mm  10.0 °C 12.0 °C
San Cataldo (CL) 24/04/17 07.11 7.8 °C 94 % 6.9 °C 1016.6 hPa 4.1 Km/h NNE 0.0 mm  7.2 °C 9.1 °C
San Giovanni la Punta Trappeto (CT) 24/04/17 06.55 9.6 °C 83 % 6.9 °C 1020.4 hPa 4.8 Km/h N 0.0 mm  9.4 °C 11.6 °C
San Nazario (VI) 24/04/17 07.01 10.9 °C 83 % 8.1 °C 1018.8 hPa 0.0 Km/h N 0.0 mm  10.8 °C 12.9 °C
San Pietro in Cariano (VR) 24/04/17 07.09 12.4 °C 73 % 7.7 °C 1018.7 hPa 0.3 Km/h S 0.0 mm  12.1 °C 12.7 °C
San Potito Lugo (RA) 19/04/17 09.40 12.5 °C 48 % 1.8 °C 1021.4 hPa 7.2 Km/h W 0.0 mm  2.9 °C 12.5 °C
San Salvo3 (CH) 24/04/17 07.10 10.1 °C 84 % 7.5 °C 1017.6 hPa 0.0 Km/h NW 0.0 mm  8.2 °C 11.4 °C
San Vito (CA) 24/04/17 07.11 8.7 °C 80 % 5.4 °C 1013.3 hPa 0.0 Km/h NNW 0.0 mm  8.5 °C 11.7 °C
Santarcangelo di Romagna (RN) 24/04/17 07.10 9.1 °C 81 % 6.0 °C 1019.3 hPa 0.0 Km/h N 0.0 mm  8.4 °C 11.2 °C
Savelli (KR) 24/04/17 07.10 10.1 °C 58 % 2.2 °C 1019.9 hPa 0.0 Km/h SE 0.0 mm  8.9 °C 10.5 °C
Schio (VI) 24/04/17 06.45 11.1 °C 81 % 8.0 °C 1021.2 hPa 3.2 Km/h NW 0.0 mm  11.1 °C 12.7 °C
Schio Monte Magré (VI) 24/04/17 07.10 9.7 °C 87 % 7.6 °C 0.0 hPa 0.0 Km/h N 0.0 mm  9.4 °C 10.7 °C
Selva di Cadore Santa Fosca (BL) 24/04/17 07.11 2.7 °C 82 % -0.1 °C 1009.0 hPa 0.0 Km/h SW 0.0 mm  2.4 °C 3.9 °C
Seremange Erzange (Moselle) 24/04/17 07.10 0.4 °C 88 % -1.4 °C 1020.6 hPa 0.0 Km/h N 0.0 mm  0.3 °C 2.9 °C
Sinnai (CA) 23/04/17 23.55 12.4 °C 71 % 7.3 °C 1019.4 hPa 0.0 Km/h --- 0.0 mm  8.6 °C 20.4 °C
Soave Borgo Bassano (VR) 24/04/17 06.55 13.3 °C 75 % 8.9 °C 1019.9 hPa 3.0 Km/h E 0.0 mm  13.2 °C 14.2 °C
Soriso (NO) 24/04/17 06.50 11.3 °C 85 % 8.8 °C 1018.7 hPa 0.0 Km/h --- 0.0 mm  11.2 °C 13.9 °C
Spoltore (PE) 24/04/17 06.58 10.0 °C 82 % 7.1 °C 1018.8 hPa 0.0 Km/h NNW 0.0 mm  9.2 °C 10.9 °C
Staranzano (GO) 24/04/17 07.00 10.3 °C 65 % 4.1 °C 1020.9 hPa 0.0 Km/h NE 0.0 mm  10.2 °C 11.3 °C
Stiore - Monteveglio (BO) 24/04/17 07.10 10.3 °C 89 % 8.5 °C 1016.1 hPa 3.2 Km/h SSE 0.0 mm  10.1 °C 11.2 °C
Taio Mollaro (TN) 24/04/17 07.10 10.2 °C 75 % 6.0 °C 1020.0 hPa 0.0 Km/h ENE 0.0 mm  9.3 °C 10.3 °C
Taranto (TA) 24/04/17 06.55 11.5 °C 77 % 7.6 °C 1016.8 hPa 6.9 Km/h E 0.0 mm  11.3 °C 14.2 °C
Todi (PG) 24/04/17 06.55 8.9 °C 74 % 4.5 °C 1019.7 hPa 0.0 Km/h N 0.0 mm  8.4 °C 10.1 °C
Tombolo (PD) 24/04/17 07.11 12.1 °C 79 % 8.5 °C 1020.6 hPa 2.4 Km/h ENE 0.0 mm  12.0 °C 13.6 °C
Torino Regio Parco (TO) 24/04/17 07.09 11.9 °C 85 % 9.4 °C 1020.5 hPa 5.4 Km/h NE 0.0 mm  11.6 °C 14.0 °C
Torre Annunziata (NA) 24/04/17 06.55 10.3 °C 83 % 7.5 °C 1021.0 hPa 2.6 Km/h ENE 0.0 mm  10.2 °C 13.2 °C
Torremaggiore (FG) 24/04/17 07.11 10.9 °C 80 % 7.6 °C 1019.0 hPa 0.0 Km/h NNE 0.0 mm  10.7 °C 11.9 °C
Torri (FI) 24/04/17 06.45 5.5 °C 95 % 4.8 °C 1020.0 hPa 0.0 Km/h --- 0.0 mm  5.3 °C 9.5 °C
Torrita di Siena (SI) 22/04/17 10.10 11.5 °C 66 % 5.4 °C 1026.0 hPa 1.6 Km/h NNE 0.0 mm  -0.1 °C 11.5 °C
Trambileno (TN) 24/04/17 07.01 8.2 °C 77 % 4.4 °C 1017.5 hPa 0.0 Km/h N 0.0 mm  8.2 °C 10.4 °C
Tregnago (VR) 24/04/17 06.58 11.2 °C 69 % 5.7 °C 1018.5 hPa 19.3 Km/h ENE 0.0 mm  11.2 °C 12.2 °C
Tregnago Loc. Centro (VR) 24/04/17 06.55 9.7 °C 74 % 5.3 °C 1012.9 hPa 16.1 Km/h NE 0.0 mm  9.7 °C 10.7 °C
Trento (TN) 24/04/17 07.10 11.7 °C 69 % 6.2 °C 1017.7 hPa 0.0 Km/h S 0.0 mm  11.1 °C 15.5 °C
Treviso (TV) 24/04/17 07.10 11.0 °C 78 % 7.3 °C 1020.5 hPa 1.0 Km/h NE 0.0 mm  11.0 °C 12.4 °C
Tuscania (VT) 23/04/17 17.00 16.5 °C 58 % 8.2 °C 1019.0 hPa 7.0 Km/h WSW 0.0 mm  5.1 °C 18.7 °C
Val Lastaro (VI) 17/04/17 17.59 6.8 °C 80 % 3.9 °C 1015.0 hPa 0.0 Km/h ENE 0.0 mm  -0.6 °C 7.4 °C
Valdobbiadene San Pietro di Barbozza (TV) 24/04/17 06.55 10.4 °C 71 % 5.4 °C 1019.3 hPa 4.8 Km/h WNW 0.0 mm  10.4 °C 11.9 °C
Valentano (VT) 24/04/17 07.10 9.2 °C 90 % 7.8 °C 1019.0 hPa 8.0 Km/h N 0.0 mm  7.8 °C 9.2 °C
Valenza (AL) 24/04/17 06.59 11.9 °C 82 % 9.0 °C 1017.8 hPa 3.2 Km/h NE 0.0 mm  11.9 °C 13.1 °C
Valli del Pasubio loc. Gisbenti (VI) 24/04/17 07.10 8.9 °C 52 % -0.4 °C 976.0 hPa 0.0 Km/h --- 0.0 mm  8.6 °C 10.4 °C
Varese Ligure (SP) 24/04/17 07.11 4.7 °C 65 % -1.3 °C 1024.3 hPa 0.0 Km/h N 0.0 mm  4.7 °C 10.5 °C
Vasto (CH) 24/04/17 00.38 8.9 °C 10 % -21.1 °C 1020.5 hPa 4.4 Km/h SW 0.0 mm  8.9 °C 9.8 °C
Vattaro fraz. Pian dei Pradi (TN) 24/04/17 07.10 7.2 °C 77 % 3.4 °C 1019.4 hPa 9.5 Km/h SSW 0.0 mm  7.1 °C 8.1 °C
Verona Bgo Venezia (iz3sly) (VR) 23/04/17 21.42 18.4 °C 47 % 6.9 °C 1015.1 hPa 1.6 Km/h WSW 0.0 mm  6.4 °C 20.2 °C
Vestenanova (VR) 24/04/17 07.11 8.9 °C 75 % 4.7 °C 1007.7 hPa 1.1 Km/h NE 0.0 mm  8.9 °C 9.8 °C
Vicenza Campedello (VI) 24/04/17 07.14 11.9 °C 84 % 9.4 °C 1020.7 hPa 0.0 Km/h NNW 0.0 mm  11.8 °C 13.2 °C
Vicenza Moracchino (VI) 24/04/17 07.11 12.2 °C 80 % 8.8 °C 1019.1 hPa 8.0 Km/h NNW 0.0 mm  11.7 °C 13.1 °C
Vicenza Pecori Giraldi (VI) 24/04/17 07.11 13.0 °C 93 % 11.9 °C 1020.6 hPa 2.7 Km/h N 0.0 mm  12.7 °C 14.2 °C
Vicenza S. Lazzaro (VI) 24/04/17 06.10 12.6 °C 77 % 8.9 °C 1019.2 hPa 0.0 Km/h N 0.0 mm  12.6 °C 13.7 °C
Vicenza San Gaetano (VI) 24/04/17 07.10 12.6 °C 81 % 9.4 °C 1019.9 hPa 0.0 Km/h NNW 0.0 mm  12.6 °C 13.9 °C
Vidor (TV) 24/04/17 06.56 9.8 °C 82 % 6.9 °C 1019.2 hPa 2.2 Km/h E 0.0 mm  9.3 °C 12.2 °C
Vieste (FG) 24/04/17 07.11 12.2 °C 86 % 9.9 °C 1021.0 hPa 5.8 Km/h SW 0.0 mm  10.7 °C 14.4 °C
Vigasio (VR) 24/04/17 06.50 13.5 °C 75 % 9.2 °C 1018.1 hPa 3.2 Km/h ESE 0.0 mm  13.4 °C 14.4 °C
Vigevano (PV) 17/04/17 20.26 17.4 °C 45 % 5.4 °C 987.7 hPa 0.0 Km/h N 0.0 mm  11.5 °C 19.6 °C
Viozene Toria (CN) 24/04/17 07.10 5.5 °C 98 % 5.2 °C 1016.7 hPa 1.0 Km/h S 0.0 mm  5.3 °C 6.2 °C
Viterbo Santa Barbara (VT) 23/04/17 22.15 9.7 °C 76 % 5.7 °C 1020.2 hPa 0.0 Km/h WSW 0.0 mm  5.8 °C 19.2 °C
Vitorchiano Pallone (VT) 23/04/17 19.00 14.8 °C 59 % 6.8 °C 1017.4 hPa 12.9 Km/h N 0.0 mm  7.5 °C 19.3 °C
Vittorio Veneto (TV) 24/04/17 07.00 10.3 °C 81 % 7.2 °C 1020.2 hPa 0.0 Km/h E 0.0 mm  10.3 °C 12.6 °C
Vittorio Veneto Parco Fenderl (TV) 24/04/17 07.00 9.2 °C 91 % 7.8 °C 1020.9 hPa 0.0 Km/h NNE 0.0 mm  9.2 °C 11.1 °C
Volpago del Montello (TV) 23/04/17 19.00 14.4 °C 60 % 6.8 °C 1017.4 hPa 0.0 Km/h --- 0.0 mm  4.4 °C 17.1 °C
 
(*) = Precipitazioni nelle ultime 24h.
Dati non aggiornati nell'ultima ora.
   
In collaborazione con:
 
Top! Top!